»·PEaware :: N53402 KSBP-KSBP

N53402 :: KSBP-KSBP

FLIGHT INFORMATION

Flight Status: Arrived
Operator: Privately registered:
United States
More flights under this callsign
Pilot: Chris C. (24581)
Aircraft: Unknown
(PIPS)
More flights by this aircraft type
Origin: KSBP San Luis Co Regl
United States
Destination: KSBP San Luis Co Regl
United States
More flights between these airports :: More routes between these airports
Route: +
File this flight plan on PilotEdge
Remarks:
Altitude:
(Current/Filed)
0ft
Speed:
(Current/Filed)
0kts
Departed: 06-Feb-20 03:05 PM
Arrived: 06-Feb-20 03:25 PM
Distance/Time
Traveled:
1nm/0:20
Distance/Time
To Go:
Arrived

Flight Plot

Page will automatically refresh every two minutes.


Map Options




Map Legend


Flown Route
Filed Route
Departure Airport
Arrival Airport
Navaid (VOR, NDB)
Fix

Horizontal Profiles

Position Reports

Time Latitude Longitude Heading Altitude Ground
Speed
06-Feb-20 14:39 35.240661 -120.644275 112 215ft 0kts
06-Feb-20 14:40 35.240661 -120.644274 112 215ft 0kts
06-Feb-20 14:41 35.240661 -120.644274 112 215ft 0kts
06-Feb-20 14:42 35.240661 -120.644274 112 215ft 0kts
06-Feb-20 14:43 35.240661 -120.644273 112 215ft 0kts
06-Feb-20 14:44 35.240661 -120.644273 112 215ft 0kts
06-Feb-20 14:45 35.240661 -120.644273 112 215ft 0kts
06-Feb-20 14:46 35.240660 -120.644273 112 215ft 0kts
06-Feb-20 14:47 35.240660 -120.644273 112 215ft 0kts
06-Feb-20 14:48 35.240660 -120.644272 112 215ft 0kts
06-Feb-20 14:49 35.240660 -120.644272 112 215ft 0kts
06-Feb-20 14:50 35.240660 -120.644271 112 215ft 0kts
06-Feb-20 14:51 35.240660 -120.644271 112 215ft 0kts
06-Feb-20 14:52 35.240660 -120.644271 112 215ft 0kts
06-Feb-20 14:53 35.240660 -120.644270 112 215ft 0kts
06-Feb-20 14:54 35.240659 -120.644270 112 215ft 0kts
06-Feb-20 14:55 35.240659 -120.644269 112 215ft 0kts
06-Feb-20 14:56 35.239480 -120.642960 125 215ft 17kts
06-Feb-20 14:57 35.235595 -120.635969 123 215ft 28kts
06-Feb-20 14:58 35.233480 -120.632429 215 215ft 2kts
06-Feb-20 14:59 35.233246 -120.632650 216 215ft 0kts
06-Feb-20 15:00 35.233246 -120.632650 216 215ft 0kts
06-Feb-20 15:01 35.233246 -120.632650 216 215ft 0kts
06-Feb-20 15:02 35.233246 -120.632650 216 215ft 0kts
06-Feb-20 15:03 35.233218 -120.633717 306 215ft 23kts
06-Feb-20 15:04 35.243457 -120.648745 317 1186ft 61kts
06-Feb-20 15:05 35.257782 -120.664809 309 2435ft 88kts
06-Feb-20 15:06 35.276582 -120.682013 333 3074ft 69kts
06-Feb-20 15:07 35.292668 -120.690608 333 3520ft 64kts
06-Feb-20 15:08 35.312897 -120.701425 333 3503ft 86kts
06-Feb-20 15:09 35.335121 -120.709420 359 2997ft 55kts
06-Feb-20 15:10 35.347521 -120.709009 343 3170ft 43kts
06-Feb-20 15:11 35.359345 -120.711779 343 3304ft 43kts
06-Feb-20 15:12 35.371134 -120.714394 343 3433ft 43kts
06-Feb-20 15:13 35.371368 -120.704767 172 3160ft 58kts
06-Feb-20 15:14 35.355460 -120.707655 195 3467ft 58kts
06-Feb-20 15:15 35.335345 -120.707404 155 3494ft 94kts
06-Feb-20 15:16 35.319564 -120.681150 123 3507ft 101kts
06-Feb-20 15:17 35.307508 -120.659591 123 3494ft 97kts
06-Feb-20 15:18 35.291432 -120.630879 123 3207ft 111kts
06-Feb-20 15:19 35.272153 -120.600683 128 2538ft 112kts
06-Feb-20 15:20 35.249722 -120.580013 181 1987ft 80kts
06-Feb-20 15:21 35.229921 -120.582865 205 1985ft 71kts
06-Feb-20 15:22 35.222180 -120.603316 261 1457ft 64kts
06-Feb-20 15:23 35.226958 -120.623249 307 713ft 59kts
06-Feb-20 15:24 35.235485 -120.637574 302 215ft 38kts
06-Feb-20 15:25 35.248422 -120.657329 310 752ft 77kts
06-Feb-20 15:26 35.257650 -120.680461 270 1349ft 91kts
06-Feb-20 15:27 35.239051 -120.699379 213 2033ft 102kts
06-Feb-20 15:28 35.213912 -120.709687 151 1935ft 81kts
06-Feb-20 15:29 35.198248 -120.683697 123 2009ft 107kts
06-Feb-20 15:30 35.179090 -120.659464 163 1990ft 99kts
06-Feb-20 15:31 35.157334 -120.682290 262 2004ft 119kts
06-Feb-20 15:32 35.175619 -120.709412 347 2031ft 111kts
06-Feb-20 15:33 35.203936 -120.706735 18 1498ft 84kts
06-Feb-20 15:34 35.216819 -120.685591 88 1473ft 78kts
06-Feb-20 15:35 35.207904 -120.681655 306 1409ft 54kts
06-Feb-20 15:36 35.226483 -120.676037 20 1308ft 83kts
06-Feb-20 15:37 35.229580 -120.654752 118 626ft 53kts
06-Feb-20 15:38 35.216806 -120.642010 157 1449ft 71kts

Navigation Log

Ident Type
Flight plan parsing failed, navigation log unavailable